Time;durP1;ratioP1;P1;durP2;ratioP2;P2;SDS_P1;SDS_P2;PMS_P1;PMS_P2;Temp;Humidity;BMP_temperature;BMP_pressure;BME280_temperature;BME280_humidity;BME280_pressure;Samples;Min_cycle;Max_cycle;Signal;HPM_P1;HPM_P2
2022/07/07 03:01:58;;;;;;;0.80;0.60;;;16.80;65.90;;;;;;5398657;23;20482;-74
2022/07/07 03:04:24;;;;;;;0.70;0.67;;;16.90;66.10;;;;;;4955747;29;20502;-74
2022/07/07 03:06:51;;;;;;;1.53;0.67;;;17.00;65.50;;;;;;4955731;29;20454;-73
2022/07/07 03:09:18;;;;;;;0.80;0.70;;;16.90;65.90;;;;;;4955366;29;20451;-73
2022/07/07 03:11:44;;;;;;;0.70;0.60;;;16.90;66.00;;;;;;4955500;29;20490;-73
2022/07/07 03:14:11;;;;;;;0.87;0.60;;;16.80;66.40;;;;;;4956951;29;20454;-74
2022/07/07 03:16:38;;;;;;;0.80;0.70;;;16.70;66.70;;;;;;4955594;29;20502;-74
2022/07/07 03:19:06;;;;;;;0.70;0.60;;;16.70;66.60;;;;;;4955517;29;20486;-74
2022/07/07 03:21:32;;;;;;;0.70;0.60;;;16.70;66.50;;;;;;4955457;29;20467;-74
2022/07/07 03:23:59;;;;;;;0.70;0.60;;;16.70;67.00;;;;;;4955444;29;20447;-74
2022/07/07 03:26:26;;;;;;;0.70;0.50;;;16.70;67.00;;;;;;4955423;29;20454;-71
2022/07/07 03:28:52;;;;;;;0.80;0.60;;;16.60;67.30;;;;;;4955437;29;20446;-71
2022/07/07 03:31:19;;;;;;;0.70;0.60;;;16.70;67.00;;;;;;4955311;29;20471;-71
2022/07/07 03:33:45;;;;;;;0.80;0.70;;;16.60;67.10;;;;;;4954957;29;21001;-71
2022/07/07 03:36:13;;;;;;;0.70;0.70;;;16.60;67.50;;;;;;4955304;29;20446;-71
2022/07/07 03:38:40;;;;;;;0.70;0.60;;;16.70;67.30;;;;;;4955318;29;20450;-71
2022/07/07 03:41:07;;;;;;;0.70;0.60;;;16.60;67.20;;;;;;4955237;29;20566;-71
2022/07/07 03:43:33;;;;;;;1.43;0.90;;;16.60;67.50;;;;;;4955286;29;20454;-71
2022/07/07 03:46:00;;;;;;;0.70;0.60;;;16.60;67.40;;;;;;4955216;29;20451;-73
2022/07/07 03:48:29;;;;;;;0.70;0.60;;;16.70;67.30;;;;;;4955210;29;20502;-72
2022/07/07 03:50:55;;;;;;;0.70;0.60;;;16.90;66.90;;;;;;4955396;28;20557;-73
2022/07/07 03:53:23;;;;;;;1.03;0.70;;;17.00;66.80;;;;;;4960643;29;20534;-72
2022/07/07 03:55:50;;;;;;;0.70;0.60;;;17.10;66.60;;;;;;4960481;29;20450;-72
2022/07/07 03:58:16;;;;;;;0.80;0.60;;;17.30;66.20;;;;;;4959018;29;20857;-71
2022/07/07 04:00:43;;;;;;;0.70;0.60;;;17.30;65.60;;;;;;4959457;29;20471;-73
2022/07/07 04:03:10;;;;;;;0.70;0.60;;;17.40;65.60;;;;;;4959990;29;20482;-73
2022/07/07 04:05:36;;;;;;;0.90;0.70;;;17.40;65.50;;;;;;4959207;29;20490;-73
2022/07/07 04:08:03;;;;;;;0.70;0.60;;;17.40;65.70;;;;;;4959250;29;20938;-73
2022/07/07 04:10:31;;;;;;;0.70;0.60;;;17.40;65.60;;;;;;4958809;29;21022;-73
2022/07/07 04:12:58;;;;;;;0.70;0.60;;;17.00;66.40;;;;;;4959028;29;20482;-72
2022/07/07 04:15:25;;;;;;;0.70;0.60;;;16.90;66.60;;;;;;4958712;29;20966;-72
2022/07/07 04:17:52;;;;;;;0.70;0.60;;;16.80;67.00;;;;;;4959382;29;20509;-73
2022/07/07 04:20:18;;;;;;;0.70;0.60;;;16.70;67.80;;;;;;4959109;29;20454;-73
2022/07/07 04:22:45;;;;;;;0.80;0.60;;;16.80;67.80;;;;;;4959181;29;20471;-73
2022/07/07 04:25:12;;;;;;;0.70;0.60;;;17.00;67.50;;;;;;4959042;29;20450;-72
2022/07/07 04:27:40;;;;;;;0.70;0.60;;;17.10;67.00;;;;;;4958551;29;20486;-73
2022/07/07 04:30:08;;;;;;;0.73;0.60;;;17.20;66.30;;;;;;4958423;29;20501;-73
2022/07/07 04:32:35;;;;;;;0.70;0.63;;;17.10;66.50;;;;;;4958354;28;20483;-73
2022/07/07 04:35:01;;;;;;;0.70;0.60;;;16.90;67.10;;;;;;4958326;29;20454;-72
2022/07/07 04:37:28;;;;;;;0.70;0.70;;;16.90;67.40;;;;;;4958321;29;20454;-73
2022/07/07 04:39:55;;;;;;;0.70;0.60;;;16.70;67.60;;;;;;4958318;29;20608;-73
2022/07/07 04:42:21;;;;;;;0.70;0.60;;;16.60;68.00;;;;;;4957867;29;20889;-72
2022/07/07 04:44:49;;;;;;;0.77;0.63;;;16.40;68.80;;;;;;4957852;29;21013;-72
2022/07/07 04:47:16;;;;;;;0.70;0.63;;;16.30;69.30;;;;;;4958135;29;20514;-72
2022/07/07 04:49:43;;;;;;;0.70;0.60;;;16.60;69.10;;;;;;4958077;29;20505;-73
2022/07/07 04:52:10;;;;;;;0.70;0.60;;;16.70;68.80;;;;;;4957901;29;20880;-73
2022/07/07 04:54:36;;;;;;;0.80;0.70;;;16.70;68.40;;;;;;4958030;29;20458;-72
2022/07/07 04:57:04;;;;;;;2.03;0.70;;;16.80;68.10;;;;;;4957681;29;21001;-73
2022/07/07 04:59:30;;;;;;;0.90;0.60;;;16.70;68.20;;;;;;4957996;29;20506;-72
2022/07/07 05:01:58;;;;;;;0.80;0.70;;;16.70;68.30;;;;;;4957408;28;20549;-71
2022/07/07 05:04:25;;;;;;;0.70;0.60;;;16.70;68.40;;;;;;4957608;29;20450;-73
2022/07/07 05:06:51;;;;;;;0.70;0.60;;;16.80;68.40;;;;;;4957828;29;20521;-73
2022/07/07 05:09:18;;;;;;;0.80;0.73;;;17.10;68.20;;;;;;4957721;29;20450;-72
2022/07/07 05:11:45;;;;;;;0.70;0.60;;;17.10;67.50;;;;;;4957374;29;20896;-72
2022/07/07 05:14:12;;;;;;;0.70;0.60;;;17.10;68.40;;;;;;4957604;29;20482;-73
2022/07/07 05:16:38;;;;;;;0.70;0.50;;;17.30;67.00;;;;;;4957624;29;20506;-72
2022/07/07 05:19:09;;;;;;;0.70;0.60;;;17.30;67.40;;;;;;4957577;29;20450;-72
2022/07/07 05:21:35;;;;;;;0.70;0.60;;;17.10;67.60;;;;;;4957580;29;20526;-72
2022/07/07 05:24:02;;;;;;;0.70;0.60;;;17.20;67.30;;;;;;4957189;29;20451;-73
2022/07/07 05:26:29;;;;;;;0.90;0.60;;;17.00;68.00;;;;;;4957472;29;20460;-73
2022/07/07 05:28:55;;;;;;;0.70;0.50;;;17.00;67.80;;;;;;4957390;29;20526;-72
2022/07/07 05:31:22;;;;;;;0.73;0.63;;;16.90;68.40;;;;;;4957288;29;20615;-72
2022/07/07 05:33:49;;;;;;;0.70;0.60;;;17.10;68.10;;;;;;4957192;29;20483;-73
2022/07/07 05:36:17;;;;;;;0.70;0.70;;;17.30;67.60;;;;;;4957506;28;20510;-72
2022/07/07 05:38:45;;;;;;;0.80;0.70;;;17.40;68.10;;;;;;4957193;29;20934;-73
2022/07/07 05:41:12;;;;;;;0.70;0.67;;;17.40;68.20;;;;;;4957140;29;20475;-72
2022/07/07 05:43:38;;;;;;;0.70;0.60;;;17.60;67.40;;;;;;4958013;28;20510;-73
2022/07/07 05:46:05;;;;;;;0.70;0.57;;;17.70;67.20;;;;;;4957206;29;20459;-73
2022/07/07 05:48:32;;;;;;;0.70;0.60;;;17.70;67.50;;;;;;4956717;29;20954;-73
2022/07/07 05:50:58;;;;;;;0.70;0.60;;;17.80;68.10;;;;;;4956645;29;20874;-73
2022/07/07 05:53:26;;;;;;;0.70;0.60;;;17.90;66.70;;;;;;4956845;29;20487;-72
2022/07/07 05:55:53;;;;;;;0.70;0.60;;;17.90;67.20;;;;;;4956998;28;20497;-73
2022/07/07 05:58:20;;;;;;;0.70;0.60;;;18.30;67.50;;;;;;4956900;29;20447;-73
2022/07/07 06:00:47;;;;;;;0.70;0.60;;;18.50;66.60;;;;;;4956549;29;20510;-73
2022/07/07 06:03:13;;;;;;;0.70;0.60;;;18.80;65.10;;;;;;4956796;29;20802;-73
2022/07/07 06:05:41;;;;;;;0.70;0.60;;;19.10;64.90;;;;;;4956717;29;20510;-73
2022/07/07 06:08:08;;;;;;;0.70;0.60;;;19.30;63.90;;;;;;4956665;29;20514;-73
2022/07/07 06:10:36;;;;;;;0.70;0.60;;;19.50;63.30;;;;;;4956599;29;20930;-73
2022/07/07 06:13:03;;;;;;;1.10;0.70;;;19.90;63.60;;;;;;4956237;29;21057;-73
2022/07/07 06:15:33;;;;;;;0.70;0.50;;;20.00;61.80;;;;;;4955640;28;20455;-73
2022/07/07 06:18:00;;;;;;;0.70;0.60;;;19.90;61.90;;;;;;4956450;29;20455;-73
2022/07/07 06:20:27;;;;;;;1.00;0.60;;;20.10;61.50;;;;;;4956330;29;20447;-73
2022/07/07 06:22:53;;;;;;;0.90;0.60;;;20.30;61.00;;;;;;4956404;29;20450;-73
2022/07/07 06:25:21;;;;;;;0.70;0.60;;;20.50;62.10;;;;;;4956282;29;20446;-73
2022/07/07 06:27:49;;;;;;;0.70;0.70;;;20.70;61.80;;;;;;4956249;29;20927;-72
2022/07/07 06:30:16;;;;;;;0.70;0.60;;;20.80;60.30;;;;;;4955988;29;20451;-72
2022/07/07 06:32:43;;;;;;;0.80;0.60;;;20.70;60.50;;;;;;4956057;29;20471;-73
2022/07/07 06:35:09;;;;;;;0.70;0.60;;;20.50;61.50;;;;;;4956145;29;20501;-73
2022/07/07 06:37:36;;;;;;;0.80;0.70;;;20.80;62.50;;;;;;4955858;29;20830;-73
2022/07/07 06:40:03;;;;;;;0.80;0.60;;;20.80;60.10;;;;;;4956122;29;20451;-73
2022/07/07 06:42:30;;;;;;;0.80;0.60;;;20.80;60.40;;;;;;4955626;29;21017;-73
2022/07/07 06:44:58;;;;;;;0.80;0.60;;;21.10;60.10;;;;;;4955959;29;20455;-73
2022/07/07 06:47:25;;;;;;;1.63;0.70;;;21.30;58.70;;;;;;4955977;29;20860;-73
2022/07/07 06:49:51;;;;;;;0.80;0.70;;;21.70;59.50;;;;;;4956005;29;20533;-72
2022/07/07 06:52:18;;;;;;;0.80;0.70;;;21.90;58.20;;;;;;4955826;29;20475;-72
2022/07/07 06:54:45;;;;;;;0.80;0.63;;;21.80;59.20;;;;;;4955775;29;20487;-72
2022/07/07 06:57:11;;;;;;;2.03;0.70;;;21.80;57.70;;;;;;4955807;29;20522;-71
2022/07/07 06:59:38;;;;;;;1.30;0.60;;;21.80;58.60;;;;;;4955884;29;20451;-72
2022/07/07 07:02:06;;;;;;;0.80;0.70;;;21.80;57.80;;;;;;4955677;29;20533;-73
2022/07/07 07:04:33;;;;;;;0.70;0.60;;;22.00;57.40;;;;;;4955843;29;20447;-72
2022/07/07 07:07:00;;;;;;;0.70;0.60;;;22.40;56.00;;;;;;4955783;29;20938;-73
2022/07/07 07:09:26;;;;;;;1.23;0.80;;;22.30;55.20;;;;;;4956168;29;20509;-72
2022/07/07 07:11:54;;;;;;;0.70;0.60;;;22.40;55.90;;;;;;4955848;29;20470;-72
2022/07/07 07:14:20;;;;;;;0.80;0.70;;;22.70;56.20;;;;;;4955683;29;20541;-73
2022/07/07 07:16:47;;;;;;;0.80;0.60;;;23.00;55.60;;;;;;4956643;29;20447;-72
2022/07/07 07:19:15;;;;;;;0.70;0.50;;;23.20;54.90;;;;;;4955952;29;20451;-73
2022/07/07 07:21:42;;;;;;;0.80;0.60;;;22.70;54.70;;;;;;4955923;29;20558;-73
2022/07/07 07:24:09;;;;;;;0.70;0.60;;;22.50;55.60;;;;;;4955950;29;20451;-72
2022/07/07 07:26:35;;;;;;;0.70;0.60;;;22.40;55.80;;;;;;4955682;28;20454;-72
2022/07/07 07:29:02;;;;;;;0.70;0.63;;;22.20;56.30;;;;;;4955290;29;20943;-74
2022/07/07 07:31:29;;;;;;;0.70;0.60;;;22.10;56.10;;;;;;4955406;29;20868;-73
2022/07/07 07:33:56;;;;;;;0.70;0.63;;;21.70;57.40;;;;;;4955267;29;20478;-72
2022/07/07 07:36:24;;;;;;;0.87;0.67;;;21.70;57.80;;;;;;4955516;29;20459;-72
2022/07/07 07:38:51;;;;;;;0.70;0.60;;;21.80;58.00;;;;;;4955234;29;20454;-72
2022/07/07 07:41:18;;;;;;;0.93;0.63;;;21.90;57.80;;;;;;4955648;29;20466;-72
2022/07/07 07:43:44;;;;;;;0.77;0.60;;;22.00;58.00;;;;;;4955540;29;20541;-72
2022/07/07 07:46:11;;;;;;;0.80;0.63;;;21.90;57.30;;;;;;4955501;29;20506;-72
2022/07/07 07:48:38;;;;;;;0.70;0.70;;;22.10;57.50;;;;;;4955516;29;20469;-73
2022/07/07 07:51:05;;;;;;;0.70;0.60;;;22.10;58.00;;;;;;4955470;29;20471;-73
2022/07/07 07:53:33;;;;;;;0.80;0.60;;;22.20;57.70;;;;;;4955303;29;20479;-72
2022/07/07 07:56:00;;;;;;;1.03;0.70;;;22.30;57.10;;;;;;4955863;29;20451;-75
2022/07/07 07:58:26;;;;;;;0.70;0.63;;;22.10;58.30;;;;;;4956371;29;20454;-74
2022/07/07 08:00:53;;;;;;;0.90;0.60;;;22.20;58.70;;;;;;4955282;29;20471;-75
2022/07/07 08:03:20;;;;;;;0.80;0.53;;;22.10;58.60;;;;;;4955466;29;20435;-74
2022/07/07 08:05:46;;;;;;;0.70;0.60;;;22.20;58.40;;;;;;4955238;29;20954;-74
2022/07/07 08:08:13;;;;;;;0.77;0.70;;;22.10;58.60;;;;;;4955015;29;20959;-74
2022/07/07 08:10:41;;;;;;;0.70;0.60;;;22.10;58.60;;;;;;4954971;29;20455;-74
2022/07/07 08:13:07;;;;;;;0.80;0.73;;;22.00;58.90;;;;;;4954768;29;20458;-74
2022/07/07 08:15:34;;;;;;;0.70;0.60;;;21.90;58.80;;;;;;4955190;29;20459;-75
2022/07/07 08:18:01;;;;;;;0.70;0.60;;;22.00;59.20;;;;;;4955046;28;20809;-74
2022/07/07 08:20:28;;;;;;;0.80;0.70;;;21.80;59.40;;;;;;4954898;29;20505;-74
2022/07/07 08:22:54;;;;;;;0.70;0.70;;;21.60;60.10;;;;;;4955032;29;20871;-74
2022/07/07 08:25:21;;;;;;;0.80;0.60;;;21.60;59.80;;;;;;4954889;29;20982;-74
2022/07/07 08:27:49;;;;;;;0.80;0.60;;;21.50;60.00;;;;;;4954995;29;20451;-74
2022/07/07 08:30:17;;;;;;;0.70;0.60;;;21.40;60.10;;;;;;4954948;29;20518;-73
2022/07/07 08:32:45;;;;;;;0.70;0.67;;;21.40;60.40;;;;;;4955376;28;20479;-74
2022/07/07 08:35:12;;;;;;;0.70;0.60;;;21.30;60.90;;;;;;4955070;29;20918;-74
2022/07/07 08:37:39;;;;;;;0.80;0.60;;;21.20;61.30;;;;;;4955746;28;20442;-72
2022/07/07 08:40:06;;;;;;;0.70;0.60;;;21.10;61.60;;;;;;4958769;29;20451;-73
2022/07/07 08:42:33;;;;;;;0.70;0.60;;;21.20;62.10;;;;;;4958360;29;20474;-73
2022/07/07 08:45:01;;;;;;;3.03;0.63;;;21.20;61.70;;;;;;4958659;29;20454;-73
2022/07/07 08:47:28;;;;;;;0.70;0.60;;;21.10;62.40;;;;;;4958356;29;20443;-74
2022/07/07 08:49:54;;;;;;;0.70;0.60;;;21.10;62.30;;;;;;4958334;28;20516;-74
2022/07/07 08:52:21;;;;;;;0.90;0.70;;;21.20;62.20;;;;;;4958140;29;20526;-73
2022/07/07 08:54:49;;;;;;;0.70;0.60;;;21.20;61.70;;;;;;4958218;29;20487;-72
2022/07/07 08:57:16;;;;;;;0.70;0.60;;;21.20;62.20;;;;;;4957985;29;20462;-72
2022/07/07 08:59:42;;;;;;;0.70;0.60;;;21.40;62.40;;;;;;4958154;29;20455;-73
2022/07/07 09:02:10;;;;;;;0.70;0.70;;;21.50;62.70;;;;;;4957830;29;20490;-73
2022/07/07 09:04:37;;;;;;;0.80;0.60;;;21.50;62.70;;;;;;4958020;29;20450;-74
2022/07/07 09:07:06;;;;;;;0.70;0.60;;;21.50;62.30;;;;;;4958271;29;20446;-74
2022/07/07 09:09:41;;;;;;;0.70;0.60;;;21.70;62.30;;;;;;4958121;29;20439;-73
2022/07/07 09:12:10;;;;;;;0.70;0.60;;;21.80;62.80;;;;;;4958334;29;20477;-74
2022/07/07 09:14:38;;;;;;;0.80;0.60;;;22.00;62.00;;;;;;4959158;29;20537;-73
2022/07/07 09:17:16;;;;;;;0.90;0.70;;;22.10;62.60;;;;;;4957867;29;20451;-74
2022/07/07 09:19:44;;;;;;;0.70;0.60;;;22.50;62.40;;;;;;4957862;28;20838;-74
2022/07/07 09:22:11;;;;;;;0.80;0.70;;;22.60;61.00;;;;;;4957560;29;20566;-73
2022/07/07 09:24:54;;;;;;;0.70;0.50;;;22.60;60.20;;;;;;4957340;29;20946;-74
2022/07/07 09:27:20;;;;;;;0.70;0.63;;;22.70;60.80;;;;;;4957466;29;20974;-73
2022/07/07 09:29:47;;;;;;;0.73;0.70;;;22.80;60.40;;;;;;4957586;29;21006;-73
2022/07/07 09:32:15;;;;;;;0.73;0.67;;;22.70;61.20;;;;;;4957610;29;20530;-74
2022/07/07 09:34:42;;;;;;;0.70;0.57;;;22.50;61.40;;;;;;4957553;29;20487;-73
2022/07/07 09:40:18;;;;;;;0.80;0.70;;;22.30;62.70;;;;;;4898614;29;20437;-73
2022/07/07 09:42:45;;;;;;;0.70;0.53;;;22.10;63.20;;;;;;4898438;29;20477;-72
2022/07/07 09:45:13;;;;;;;0.70;0.60;;;21.90;63.90;;;;;;4928352;28;20486;-73
2022/07/07 09:47:41;;;;;;;0.80;0.60;;;21.70;64.20;;;;;;4957612;29;20513;-73
2022/07/07 09:50:09;;;;;;;0.80;0.67;;;21.60;64.90;;;;;;4957249;28;20447;-73
2022/07/07 09:52:37;;;;;;;0.70;0.60;;;21.50;65.20;;;;;;4957188;29;20467;-74
2022/07/07 09:55:08;;;;;;;0.67;0.60;;;21.50;65.50;;;;;;4957320;29;20494;-74
2022/07/07 09:57:35;;;;;;;0.80;0.60;;;21.40;65.40;;;;;;4957116;29;20845;-72
2022/07/07 10:00:01;;;;;;;0.70;0.60;;;21.30;65.80;;;;;;4957148;29;20451;-73
2022/07/07 10:02:30;;;;;;;0.70;0.50;;;21.40;65.70;;;;;;4956493;29;20478;-73
2022/07/07 10:05:00;;;;;;;0.90;0.60;;;21.40;65.60;;;;;;4956704;29;20537;-73
2022/07/07 10:07:28;;;;;;;0.83;0.60;;;21.30;65.50;;;;;;4956693;29;20446;-72
2022/07/07 10:09:57;;;;;;;0.80;0.60;;;21.10;65.80;;;;;;4956323;29;20938;-73
2022/07/07 10:12:25;;;;;;;0.80;0.80;;;21.20;66.70;;;;;;4956500;29;20478;-73
2022/07/07 10:14:55;;;;;;;0.80;0.70;;;21.20;66.30;;;;;;4956416;29;20486;-74
2022/07/07 10:17:22;;;;;;;0.70;0.50;;;21.30;66.50;;;;;;4956779;29;20447;-75
2022/07/07 10:19:49;;;;;;;0.70;0.60;;;21.40;66.00;;;;;;4956275;29;20817;-72
2022/07/07 10:22:18;;;;;;;0.70;0.70;;;21.40;65.90;;;;;;4956391;29;20475;-74
2022/07/07 10:24:46;;;;;;;0.70;0.60;;;21.50;65.70;;;;;;4956730;29;20451;-74
2022/07/07 10:27:15;;;;;;;0.70;0.60;;;21.50;65.70;;;;;;4956171;29;20939;-73
2022/07/07 10:29:44;;;;;;;0.70;0.60;;;21.60;65.60;;;;;;4956646;29;20538;-74
2022/07/07 10:32:12;;;;;;;0.80;0.70;;;21.80;65.60;;;;;;4956098;29;20816;-74
2022/07/07 10:34:41;;;;;;;0.80;0.50;;;22.10;64.10;;;;;;4956265;29;20487;-73
2022/07/07 10:37:10;;;;;;;0.70;0.60;;;22.30;63.60;;;;;;4956262;29;20865;-72
2022/07/07 10:39:43;;;;;;;0.70;0.50;;;22.40;62.60;;;;;;4955990;29;20966;-73
2022/07/07 10:42:29;;;;;;;0.70;0.60;;;22.40;62.40;;;;;;4956246;29;20562;-74
2022/07/07 10:44:56;;;;;;;0.80;0.60;;;22.40;62.60;;;;;;4952823;28;20455;-74
2022/07/07 10:47:32;;;;;;;0.70;0.60;;;22.40;62.50;;;;;;4956112;29;20447;-74
2022/07/07 10:50:00;;;;;;;0.70;0.60;;;22.00;63.40;;;;;;4955929;28;20537;-73
2022/07/07 10:52:28;;;;;;;0.70;0.60;;;22.10;63.90;;;;;;4955813;29;20471;-74
2022/07/07 10:54:59;;;;;;;1.47;0.70;;;22.30;63.80;;;;;;4955676;29;20487;-74
2022/07/07 10:57:26;;;;;;;0.70;0.60;;;22.40;63.20;;;;;;4955883;29;20439;-74
2022/07/07 11:00:09;;;;;;;0.80;0.60;;;22.50;63.00;;;;;;4955595;28;20580;-74
2022/07/07 11:02:38;;;;;;;0.70;0.60;;;22.30;62.50;;;;;;4955275;29;20518;-74
2022/07/07 11:05:30;;;;;;;0.70;0.60;;;22.30;62.80;;;;;;4955437;29;20943;-76
2022/07/07 11:08:11;;;;;;;0.70;0.60;;;22.20;63.10;;;;;;4956059;28;20541;-74
2022/07/07 11:10:51;;;;;;;0.90;0.67;;;22.10;63.40;;;;;;4955299;29;20793;-74
2022/07/07 11:13:21;;;;;;;0.70;0.60;;;22.10;64.00;;;;;;4955678;29;20418;-75
2022/07/07 11:15:49;;;;;;;0.70;0.57;;;22.20;63.90;;;;;;4955641;29;20509;-74
2022/07/07 11:18:18;;;;;;;1.10;0.60;;;22.30;64.00;;;;;;4955273;28;20526;-74
2022/07/07 11:20:53;;;;;;;0.70;0.60;;;22.40;63.80;;;;;;4955556;29;20478;-74
2022/07/07 11:23:20;;;;;;;0.70;0.60;;;22.40;63.90;;;;;;4955528;29;20454;-72
2022/07/07 11:25:47;;;;;;;0.80;0.60;;;22.40;63.80;;;;;;4955377;29;20470;-74
2022/07/07 11:28:15;;;;;;;1.30;0.60;;;22.30;64.10;;;;;;4955403;28;20859;-73
2022/07/07 11:30:42;;;;;;;0.70;0.60;;;22.30;66.20;;;;;;4955350;29;20451;-74
2022/07/07 11:33:09;;;;;;;0.70;0.60;;;22.40;66.60;;;;;;4955303;29;20876;-73
2022/07/07 11:35:40;;;;;;;1.57;0.70;;;22.40;66.40;;;;;;4955845;29;20483;-74
2022/07/07 11:38:08;;;;;;;0.80;0.70;;;22.60;67.60;;;;;;4955465;29;20494;-72
2022/07/07 11:40:37;;;;;;;0.70;0.60;;;22.60;65.80;;;;;;4955402;29;20799;-73
2022/07/07 11:43:05;;;;;;;1.10;0.60;;;22.80;66.00;;;;;;4955265;29;20447;-73
2022/07/07 11:45:33;;;;;;;0.90;0.60;;;22.90;64.70;;;;;;4955281;29;20451;-74
2022/07/07 11:48:02;;;;;;;0.80;0.60;;;22.90;63.40;;;;;;4955046;29;20961;-74
2022/07/07 11:50:31;;;;;;;0.70;0.60;;;22.90;63.60;;;;;;4955612;29;20506;-72
2022/07/07 11:52:59;;;;;;;0.80;0.70;;;23.00;63.60;;;;;;4955173;29;20549;-73
2022/07/07 11:55:26;;;;;;;0.70;0.50;;;22.90;62.90;;;;;;4955012;29;20494;-71
2022/07/07 11:57:55;;;;;;;0.87;0.63;;;22.60;62.50;;;;;;4955136;29;20505;-73
2022/07/07 12:00:24;;;;;;;0.70;0.50;;;22.40;63.00;;;;;;4956401;29;20512;-73
2022/07/07 12:02:54;;;;;;;0.73;0.70;;;22.00;63.80;;;;;;4956190;28;20562;-74
2022/07/07 12:05:22;;;;;;;0.70;0.60;;;21.90;64.10;;;;;;4955624;29;20451;-73
2022/07/07 12:08:00;;;;;;;0.70;0.57;;;22.00;64.60;;;;;;4955907;29;20543;-73
2022/07/07 12:10:29;;;;;;;0.70;0.60;;;22.10;63.80;;;;;;4956029;29;20439;-73
2022/07/07 12:12:59;;;;;;;0.70;0.60;;;22.10;64.10;;;;;;4956993;28;20510;-73
2022/07/07 12:15:28;;;;;;;0.70;0.60;;;22.20;63.80;;;;;;4959563;28;20880;-73
2022/07/07 12:17:56;;;;;;;0.70;0.60;;;22.20;62.60;;;;;;4959421;29;20537;-73
2022/07/07 12:20:23;;;;;;;0.70;0.60;;;22.10;63.10;;;;;;4959376;28;20535;-73
2022/07/07 12:22:55;;;;;;;0.80;0.70;;;22.10;63.00;;;;;;4958692;29;21040;-73
2022/07/07 12:25:25;;;;;;;0.80;0.63;;;22.10;63.40;;;;;;4958944;29;20525;-73
2022/07/07 12:27:56;;;;;;;0.70;0.63;;;22.00;63.30;;;;;;4958727;29;20451;-73
2022/07/07 12:30:24;;;;;;;0.70;0.50;;;21.90;63.80;;;;;;4958833;29;20517;-73
2022/07/07 12:32:51;;;;;;;0.70;0.50;;;22.00;63.70;;;;;;4958810;29;20870;-73
2022/07/07 12:35:37;;;;;;;0.80;0.60;;;22.10;63.50;;;;;;4958784;29;20542;-73
2022/07/07 12:38:06;;;;;;;0.70;0.60;;;21.90;63.30;;;;;;4958617;29;20526;-72
2022/07/07 12:40:34;;;;;;;2.77;0.70;;;22.00;63.70;;;;;;4958657;29;20462;-72
2022/07/07 12:43:07;;;;;;;0.70;0.60;;;22.00;63.30;;;;;;4958373;29;20462;-74
2022/07/07 12:45:34;;;;;;;0.70;0.60;;;21.90;63.40;;;;;;4958620;29;20446;-73
2022/07/07 12:48:01;;;;;;;0.70;0.60;;;21.80;63.30;;;;;;4959005;29;20447;-73
2022/07/07 12:50:29;;;;;;;1.17;0.60;;;21.80;63.10;;;;;;4958493;29;20454;-72
2022/07/07 12:52:59;;;;;;;0.70;0.57;;;21.80;63.20;;;;;;4958486;29;20447;-74
2022/07/07 12:55:34;;;;;;;0.80;0.70;;;21.80;62.70;;;;;;4958630;29;20487;-73
2022/07/07 12:58:04;;;;;;;0.80;0.60;;;21.80;63.10;;;;;;4958362;29;20434;-73
2022/07/07 13:00:31;;;;;;;0.70;0.60;;;21.80;63.60;;;;;;4958058;29;20470;-74
2022/07/07 13:02:58;;;;;;;0.80;0.60;;;21.70;63.50;;;;;;4957843;29;20458;-73
2022/07/07 13:05:25;;;;;;;0.70;0.60;;;21.70;63.80;;;;;;4958139;29;20447;-73
2022/07/07 13:07:51;;;;;;;0.70;0.60;;;21.80;63.40;;;;;;4958598;29;20463;-73
2022/07/07 13:10:19;;;;;;;0.70;0.60;;;21.70;63.80;;;;;;4958218;29;20497;-73
2022/07/07 13:12:47;;;;;;;0.90;0.60;;;21.70;64.00;;;;;;4958137;29;20479;-73
2022/07/07 13:15:14;;;;;;;0.70;0.60;;;21.80;64.40;;;;;;4958856;29;20486;-73
2022/07/07 13:17:42;;;;;;;0.70;0.60;;;21.90;63.50;;;;;;4958039;29;20462;-73
2022/07/07 13:20:09;;;;;;;0.70;0.60;;;22.00;63.40;;;;;;4957605;29;20455;-73
2022/07/07 13:22:36;;;;;;;0.70;0.50;;;22.20;63.40;;;;;;4957356;29;20514;-73
2022/07/07 13:25:03;;;;;;;0.80;0.60;;;22.30;63.00;;;;;;4957161;28;20452;-72
2022/07/07 13:27:31;;;;;;;0.70;0.60;;;22.40;62.80;;;;;;4957464;29;20446;-73
2022/07/07 13:29:58;;;;;;;0.90;0.70;;;22.30;62.60;;;;;;4957423;29;20451;-73
2022/07/07 13:32:24;;;;;;;1.43;0.60;;;22.50;62.60;;;;;;4957324;29;20507;-73
2022/07/07 13:34:51;;;;;;;2.50;0.60;;;22.70;63.30;;;;;;4958269;29;20451;-74
2022/07/07 13:37:18;;;;;;;0.70;0.63;;;22.80;61.90;;;;;;4957213;29;20510;-73
2022/07/07 13:39:44;;;;;;;0.70;0.60;;;22.60;62.50;;;;;;4957293;29;20858;-72
2022/07/07 13:42:11;;;;;;;0.70;0.63;;;22.50;62.60;;;;;;4957263;29;20463;-73
2022/07/07 13:44:42;;;;;;;0.90;0.60;;;22.60;63.10;;;;;;4957475;29;20455;-73
2022/07/07 13:47:10;;;;;;;0.70;0.60;;;22.80;62.20;;;;;;4957523;29;20439;-73
2022/07/07 13:49:37;;;;;;;0.83;0.70;;;22.80;62.00;;;;;;4957445;29;20453;-73
2022/07/07 13:52:05;;;;;;;1.00;0.60;;;22.90;62.10;;;;;;4957000;29;20575;-73
2022/07/07 13:54:33;;;;;;;0.70;0.60;;;23.00;62.70;;;;;;4957107;29;20808;-73
2022/07/07 13:57:00;;;;;;;0.70;0.53;;;23.10;62.40;;;;;;4957080;29;20569;-73
2022/07/07 13:59:26;;;;;;;0.70;0.60;;;23.10;62.10;;;;;;4957142;29;20521;-72
2022/07/07 14:01:54;;;;;;;0.70;0.60;;;23.10;61.80;;;;;;4956829;29;20482;-72
2022/07/07 14:04:21;;;;;;;0.70;0.60;;;23.00;62.00;;;;;;4957038;29;20522;-71
2022/07/07 14:06:48;;;;;;;0.70;0.60;;;23.00;61.90;;;;;;4957134;29;20447;-72
2022/07/07 14:09:15;;;;;;;0.80;0.60;;;22.90;62.20;;;;;;4956507;29;20867;-72
2022/07/07 14:11:42;;;;;;;0.70;0.60;;;22.80;62.50;;;;;;4957184;28;20522;-73
2022/07/07 14:14:11;;;;;;;0.67;0.50;;;22.60;63.10;;;;;;4956992;29;20564;-72
2022/07/07 14:16:37;;;;;;;1.00;0.67;;;22.50;63.70;;;;;;4956377;29;20998;-72
2022/07/07 14:19:05;;;;;;;0.80;0.60;;;22.40;65.30;;;;;;4956682;29;20447;-73
2022/07/07 14:21:32;;;;;;;0.70;0.50;;;22.30;67.00;;;;;;4956370;29;21107;-73
2022/07/07 14:23:59;;;;;;;0.70;0.60;;;22.00;68.80;;;;;;4956584;29;20942;-73
2022/07/07 14:26:25;;;;;;;1.00;0.57;;;21.60;70.70;;;;;;4956273;29;21001;-74
2022/07/07 14:28:53;;;;;;;0.70;0.57;;;21.30;71.10;;;;;;4956312;29;21022;-74
2022/07/07 14:31:20;;;;;;;0.70;0.60;;;21.10;71.70;;;;;;4956456;29;20511;-73
2022/07/07 14:33:47;;;;;;;0.70;0.60;;;20.90;72.00;;;;;;4956275;29;20513;-73
2022/07/07 14:36:15;;;;;;;0.70;0.50;;;20.70;73.10;;;;;;4955365;28;20482;-73
2022/07/07 14:38:42;;;;;;;0.70;0.60;;;20.60;73.50;;;;;;4956117;29;20801;-72
2022/07/07 14:41:09;;;;;;;0.70;0.70;;;20.40;73.90;;;;;;4956362;29;20463;-71
2022/07/07 14:43:37;;;;;;;0.70;0.50;;;20.40;74.10;;;;;;4956272;29;20451;-73
2022/07/07 14:46:04;;;;;;;0.87;0.60;;;20.50;74.30;;;;;;4956210;29;20447;-72
2022/07/07 14:48:31;;;;;;;0.70;0.60;;;20.60;75.00;;;;;;4956235;29;20454;-72
2022/07/07 14:50:59;;;;;;;0.70;0.60;;;20.80;73.30;;;;;;4956021;29;20474;-73
2022/07/07 14:53:27;;;;;;;0.70;0.60;;;20.90;73.30;;;;;;4955901;29;20963;-73
2022/07/07 14:55:54;;;;;;;0.70;0.60;;;21.10;73.30;;;;;;4956071;28;20829;-73
2022/07/07 14:58:20;;;;;;;0.80;0.60;;;21.20;72.60;;;;;;4956264;29;20529;-74
2022/07/07 15:00:47;;;;;;;0.70;0.50;;;21.40;71.90;;;;;;4955782;29;20479;-73
2022/07/07 15:03:14;;;;;;;0.70;0.60;;;21.40;71.40;;;;;;4955594;29;20852;-72
2022/07/07 15:05:41;;;;;;;0.70;0.50;;;21.40;71.20;;;;;;4955818;29;20451;-73
2022/07/07 15:08:07;;;;;;;0.70;0.60;;;21.50;70.90;;;;;;4956087;29;20505;-72
2022/07/07 15:10:36;;;;;;;0.70;0.50;;;21.40;70.90;;;;;;4955805;29;20498;-72
2022/07/07 15:13:03;;;;;;;0.70;0.50;;;21.40;70.70;;;;;;4955843;29;20542;-73
2022/07/07 15:15:30;;;;;;;0.70;0.50;;;21.50;70.90;;;;;;4956865;29;20974;-74
2022/07/07 15:17:57;;;;;;;0.70;0.60;;;21.60;70.70;;;;;;4955909;29;20879;-73
2022/07/07 15:20:24;;;;;;;0.70;0.50;;;21.70;70.20;;;;;;4955634;29;20489;-72
2022/07/07 15:22:51;;;;;;;0.70;0.50;;;22.00;70.20;;;;;;4955696;29;20560;-73
2022/07/07 15:25:17;;;;;;;0.60;0.50;;;22.10;69.70;;;;;;4955729;29;20498;-72
2022/07/07 15:27:47;;;;;;;0.70;0.50;;;22.20;68.80;;;;;;4955656;29;20478;-73
2022/07/07 15:30:14;;;;;;;0.70;0.50;;;22.20;68.90;;;;;;4955436;29;20505;-71
2022/07/07 15:32:41;;;;;;;0.70;0.60;;;22.20;68.90;;;;;;4955118;29;20998;-73
2022/07/07 15:35:08;;;;;;;0.70;0.57;;;22.00;67.80;;;;;;4957130;29;20505;-73
2022/07/07 15:37:35;;;;;;;0.70;0.60;;;21.70;68.70;;;;;;4956230;28;20537;-73
2022/07/07 15:40:01;;;;;;;0.70;0.60;;;21.60;68.80;;;;;;4955693;29;20502;-74
2022/07/07 15:42:28;;;;;;;0.70;0.60;;;21.40;69.40;;;;;;4955682;29;20502;-74
2022/07/07 15:44:56;;;;;;;0.90;0.60;;;21.40;69.00;;;;;;4955842;29;20459;-74
2022/07/07 15:47:23;;;;;;;0.67;0.50;;;21.20;69.70;;;;;;4959330;28;20501;-74
2022/07/07 15:49:50;;;;;;;0.70;0.57;;;21.20;69.90;;;;;;4962245;28;20510;-74
2022/07/07 15:52:17;;;;;;;0.70;0.50;;;21.10;69.40;;;;;;4961762;28;21012;-74
2022/07/07 15:54:44;;;;;;;0.70;0.60;;;21.00;69.10;;;;;;4962180;28;20455;-74